createdAt,value
2022-12-08T00:00:02.206Z,5.13
2022-12-08T00:04:23.382Z,7.03
2022-12-08T00:08:53.492Z,6.47
2022-12-08T00:13:05.033Z,6.47
2022-12-08T00:17:17.432Z,7.90
2022-12-08T00:21:29.301Z,6.17
2022-12-08T00:25:40.894Z,5.37
2022-12-08T00:29:53.702Z,4.97
2022-12-08T00:34:05.821Z,6.07
2022-12-08T00:38:17.440Z,5.33
2022-12-08T00:42:29.001Z,5.00
2022-12-08T00:46:41.308Z,5.50
2022-12-08T00:50:54.441Z,5.20
2022-12-08T00:55:06.399Z,5.20
2022-12-08T00:59:18.162Z,8.00
2022-12-08T01:03:29.699Z,4.67
2022-12-08T01:07:41.398Z,4.83
2022-12-08T01:11:53.033Z,3.97
2022-12-08T01:16:05.016Z,3.57
2022-12-08T01:20:16.590Z,10.07
2022-12-08T01:24:28.269Z,7.17
2022-12-08T01:28:40.470Z,5.33
2022-12-08T01:32:52.073Z,5.33
2022-12-08T01:37:03.723Z,7.57
2022-12-08T01:41:20.948Z,6.13
2022-12-08T01:45:32.674Z,8.73
2022-12-08T01:49:44.623Z,7.80
2022-12-08T01:53:56.567Z,6.87
2022-12-08T01:58:16.721Z,9.50
2022-12-08T02:02:39.943Z,10.67
2022-12-08T02:06:52.681Z,7.13
2022-12-08T02:11:06.276Z,7.57
2022-12-08T02:15:18.563Z,7.97
2022-12-08T02:19:48.836Z,12.50
2022-12-08T02:24:28.771Z,9.03
2022-12-08T02:29:28.046Z,9.50
2022-12-08T02:34:10.285Z,8.80
2022-12-08T02:38:44.305Z,7.93
2022-12-08T02:43:02.843Z,8.90
2022-12-08T02:47:18.543Z,10.07
2022-12-08T02:51:30.172Z,7.93
2022-12-08T02:55:47.938Z,7.87
2022-12-08T03:00:03.616Z,8.57
2022-12-08T03:04:34.948Z,8.20
2022-12-08T03:09:08.225Z,7.70
2022-12-08T03:13:25.819Z,8.00
2022-12-08T03:17:41.001Z,9.10
2022-12-08T03:22:02.922Z,7.77
2022-12-08T03:26:25.071Z,7.33
2022-12-08T03:30:40.767Z,7.07
2022-12-08T03:34:54.332Z,6.67
2022-12-08T03:39:05.916Z,7.43
2022-12-08T03:43:17.536Z,6.63
2022-12-08T03:47:29.436Z,5.40
2022-12-08T03:51:41.121Z,4.80
2022-12-08T03:55:53.923Z,5.30
2022-12-08T04:00:08.077Z,5.47
2022-12-08T04:04:19.748Z,3.00
2022-12-08T04:08:31.367Z,4.07
2022-12-08T04:12:42.891Z,4.30
2022-12-08T04:16:54.470Z,2.43
2022-12-08T04:21:06.097Z,2.63
2022-12-08T04:25:17.677Z,3.43
2022-12-08T04:29:29.249Z,6.93
2022-12-08T04:33:40.820Z,3.93
2022-12-08T04:37:52.468Z,2.47
2022-12-08T04:42:04.095Z,1.87
2022-12-08T04:46:15.745Z,2.20
2022-12-08T04:50:27.791Z,2.70
2022-12-08T04:54:39.340Z,3.37
2022-12-08T04:58:51.016Z,4.37
2022-12-08T05:03:02.817Z,3.30
2022-12-08T05:07:14.554Z,4.20
2022-12-08T05:11:26.111Z,4.03
2022-12-08T05:15:37.649Z,4.70
2022-12-08T05:19:49.208Z,5.47
2022-12-08T05:24:00.827Z,7.93
2022-12-08T05:28:40.199Z,4.40
2022-12-08T05:32:44.271Z,4.50
2022-12-08T05:36:55.869Z,4.73
2022-12-08T05:41:08.371Z,3.87
2022-12-08T05:45:19.882Z,2.63
2022-12-08T05:49:31.440Z,5.67
2022-12-08T05:53:43.000Z,2.53
2022-12-08T05:57:54.594Z,1.40
2022-12-08T06:02:06.338Z,1.67
2022-12-08T06:06:18.400Z,2.50
2022-12-08T06:10:30.072Z,2.03
2022-12-08T06:14:41.965Z,1.40
2022-12-08T06:18:53.871Z,1.10
2022-12-08T06:23:05.398Z,1.10
2022-12-08T06:27:16.929Z,1.43
2022-12-08T06:31:28.603Z,0.63
2022-12-08T06:35:40.289Z,1.70
2022-12-08T06:39:52.029Z,1.13
2022-12-08T06:44:03.655Z,1.00
2022-12-08T06:48:15.328Z,1.13
2022-12-08T06:52:26.979Z,1.83
2022-12-08T06:56:38.582Z,2.60
2022-12-08T07:00:50.226Z,0.90
2022-12-08T07:05:01.854Z,2.20
2022-12-08T07:09:13.357Z,1.77
2022-12-08T07:13:24.882Z,1.50
2022-12-08T07:17:36.341Z,1.63
2022-12-08T07:21:47.906Z,1.30
2022-12-08T07:26:04.001Z,1.70
2022-12-08T07:30:15.551Z,1.43
2022-12-08T07:34:27.084Z,1.40
2022-12-08T07:38:38.590Z,1.30
2022-12-08T07:42:50.047Z,1.30
2022-12-08T07:47:01.547Z,1.53
2022-12-08T07:51:14.818Z,1.67
2022-12-08T07:55:26.741Z,1.83
2022-12-08T07:59:38.260Z,2.07
2022-12-08T08:03:50.599Z,1.60
2022-12-08T08:08:02.195Z,1.63
2022-12-08T08:16:47.405Z,1.67
2022-12-08T08:21:06.675Z,1.77
2022-12-08T08:25:27.417Z,1.93
2022-12-08T08:29:38.943Z,1.70
2022-12-08T08:33:50.452Z,1.97
2022-12-08T08:38:01.949Z,1.60
2022-12-08T08:42:13.476Z,2.10
2022-12-08T08:46:25.023Z,4.50
2022-12-08T08:50:37.860Z,2.40
2022-12-08T08:54:49.424Z,1.60
2022-12-08T08:59:02.948Z,1.20
2022-12-08T09:03:14.455Z,1.50
2022-12-08T09:07:25.916Z,5.43
2022-12-08T09:11:38.059Z,1.40
2022-12-08T09:15:49.663Z,1.47
2022-12-08T09:20:01.451Z,1.77
2022-12-08T09:24:15.987Z,2.10
2022-12-08T09:28:27.533Z,2.40
2022-12-08T09:32:39.098Z,2.87
2022-12-08T09:36:50.582Z,2.93
2022-12-08T09:41:05.281Z,2.90
2022-12-08T09:45:18.120Z,2.53
2022-12-08T09:49:41.119Z,3.23
2022-12-08T09:54:01.196Z,3.90
2022-12-08T09:58:21.413Z,2.30
2022-12-08T10:02:32.972Z,3.20
2022-12-08T10:06:59.832Z,4.33
2022-12-08T10:11:19.323Z,1.97
2022-12-08T10:15:47.810Z,3.47
2022-12-08T10:20:12.197Z,4.00
2022-12-08T10:24:34.597Z,2.00
2022-12-08T10:28:46.423Z,4.83
2022-12-08T10:32:58.069Z,3.23
2022-12-08T10:37:10.479Z,3.10
2022-12-08T10:41:24.872Z,3.83
2022-12-08T10:45:43.960Z,4.90
2022-12-08T10:50:22.653Z,1.80
2022-12-08T10:54:37.285Z,1.67
2022-12-08T10:58:48.792Z,2.60
2022-12-08T11:03:03.206Z,1.73
2022-12-08T11:07:22.646Z,5.60
2022-12-08T11:11:57.262Z,2.13
2022-12-08T11:16:13.797Z,2.30
2022-12-08T11:20:25.295Z,2.00
2022-12-08T11:24:38.008Z,1.90
2022-12-08T11:28:49.556Z,1.97
2022-12-08T11:33:12.558Z,9.90
2022-12-08T11:37:38.345Z,5.83
2022-12-08T11:41:53.470Z,4.27
2022-12-08T11:46:17.654Z,2.90
2022-12-08T11:50:38.557Z,4.20
2022-12-08T11:55:10.235Z,1.80
2022-12-08T11:59:39.473Z,2.37
2022-12-08T12:04:16.457Z,3.27
2022-12-08T12:08:49.732Z,1.83
2022-12-08T12:13:13.141Z,3.53
2022-12-08T12:17:50.753Z,1.80
2022-12-08T12:22:20.179Z,1.40
2022-12-08T12:26:37.356Z,3.00
2022-12-08T12:31:00.203Z,4.07
2022-12-08T12:35:37.864Z,3.43
2022-12-08T12:40:02.166Z,1.93
2022-12-08T12:44:13.870Z,1.10
2022-12-08T12:48:25.732Z,5.70
2022-12-08T12:52:38.205Z,1.43
2022-12-08T12:56:55.444Z,1.10
2022-12-08T13:01:10.034Z,0.63
2022-12-08T13:05:31.647Z,0.73
2022-12-08T13:09:55.649Z,3.40
2022-12-08T13:14:24.210Z,1.07
2022-12-08T13:18:39.907Z,1.00
2022-12-08T13:22:54.441Z,1.20
2022-12-08T13:27:05.868Z,2.67
2022-12-08T13:31:51.685Z,1.50
2022-12-08T13:36:11.672Z,1.50
2022-12-08T13:40:28.012Z,2.73
2022-12-08T13:59:19.277Z,1.30
2022-12-08T14:03:31.504Z,1.30
2022-12-08T14:07:44.007Z,2.20
2022-12-08T14:12:03.386Z,2.53
2022-12-08T14:16:28.888Z,1.33
2022-12-08T14:21:11.989Z,1.33
2022-12-08T14:25:17.112Z,3.23
2022-12-08T14:29:41.308Z,1.60
2022-12-08T14:33:56.604Z,1.03
2022-12-08T14:38:19.949Z,0.97
2022-12-08T14:43:02.017Z,1.30
2022-12-08T14:47:20.912Z,1.37
2022-12-08T14:51:33.217Z,1.30
2022-12-08T14:55:47.569Z,1.33
2022-12-08T15:00:07.977Z,1.50
2022-12-08T15:04:25.597Z,3.00
2022-12-08T15:08:56.207Z,3.00
2022-12-08T15:13:08.570Z,3.87
2022-12-08T15:17:40.518Z,4.47
2022-12-08T15:21:52.152Z,6.10
2022-12-08T15:26:04.625Z,6.23
2022-12-08T15:30:17.575Z,4.67
2022-12-08T15:34:29.130Z,9.27
2022-12-08T15:38:40.606Z,4.10
2022-12-08T15:42:52.133Z,3.63
2022-12-08T15:47:04.332Z,6.83
2022-12-08T15:51:15.943Z,6.20
2022-12-08T15:55:27.564Z,5.93
2022-12-08T15:59:39.201Z,6.30
2022-12-08T16:08:45.114Z,12.93
2022-12-08T16:13:55.367Z,5.73
2022-12-08T16:17:45.251Z,7.13
2022-12-08T16:27:28.586Z,7.00
2022-12-08T16:31:00.081Z,4.40
2022-12-08T16:35:13.135Z,7.53
2022-12-08T16:39:24.702Z,6.17
2022-12-08T16:43:36.316Z,7.33
2022-12-08T16:47:54.692Z,5.10
2022-12-08T16:52:06.709Z,5.63
2022-12-08T16:56:20.500Z,6.93
2022-12-08T17:00:37.193Z,6.67
2022-12-08T17:04:49.144Z,6.25
2022-12-08T17:09:00.787Z,6.90
2022-12-08T17:13:13.094Z,5.10
2022-12-08T17:17:25.389Z,10.57
2022-12-08T17:21:37.010Z,8.60
2022-12-08T17:25:59.423Z,10.07
2022-12-08T17:30:12.518Z,12.50
2022-12-08T17:34:24.135Z,15.80
2022-12-08T17:38:35.835Z,60.73
2022-12-08T17:42:47.405Z,26.07
2022-12-08T17:47:00.325Z,32.90
2022-12-08T17:51:11.939Z,22.87
2022-12-08T17:55:23.451Z,30.90
2022-12-08T17:59:35.248Z,22.90
2022-12-08T18:03:46.808Z,12.43
2022-12-08T18:07:58.624Z,13.80
2022-12-08T18:12:10.279Z,11.37
2022-12-08T18:16:25.029Z,11.50
2022-12-08T18:20:37.525Z,12.23
2022-12-08T18:24:49.157Z,15.93
2022-12-08T18:29:00.849Z,15.30
2022-12-08T18:33:12.379Z,11.87
2022-12-08T18:37:23.900Z,12.17
2022-12-08T18:41:35.409Z,10.93
2022-12-08T18:45:46.947Z,25.67
2022-12-08T18:49:58.658Z,15.37
2022-12-08T18:54:11.343Z,14.13
2022-12-08T18:58:22.955Z,14.87
2022-12-08T19:02:35.005Z,20.63
2022-12-08T19:06:47.134Z,22.90
2022-12-08T19:10:59.224Z,18.23
2022-12-08T19:15:11.182Z,18.87
2022-12-08T19:19:22.949Z,24.90
2022-12-08T19:23:34.783Z,37.67
2022-12-08T19:27:46.342Z,19.07
2022-12-08T19:31:58.257Z,33.03
2022-12-08T19:36:14.031Z,14.20
2022-12-08T19:40:44.230Z,14.13
2022-12-08T19:44:55.982Z,8.13
2022-12-08T19:49:07.565Z,8.90
2022-12-08T19:53:19.558Z,9.03
2022-12-08T19:57:31.174Z,11.00
2022-12-08T20:01:44.083Z,15.07
2022-12-08T20:05:55.893Z,14.83
2022-12-08T20:10:14.912Z,18.67
2022-12-08T20:14:26.522Z,21.27
2022-12-08T20:18:39.942Z,14.00
2022-12-08T20:22:51.504Z,12.03
2022-12-08T20:27:03.110Z,14.10
2022-12-08T20:31:20.393Z,16.67
2022-12-08T20:35:32.187Z,14.73
2022-12-08T20:39:43.998Z,12.87
2022-12-08T20:43:55.617Z,12.77
2022-12-08T20:48:07.344Z,12.03
2022-12-08T20:52:19.080Z,14.00
2022-12-08T20:56:32.227Z,11.87
2022-12-08T21:00:44.124Z,13.10
2022-12-08T21:04:55.860Z,13.20
2022-12-08T21:09:09.161Z,12.97
2022-12-08T21:13:21.519Z,13.17
2022-12-08T21:17:33.463Z,13.13
2022-12-08T21:21:45.904Z,13.10
2022-12-08T21:25:57.990Z,11.57
2022-12-08T21:30:10.780Z,12.83
2022-12-08T21:34:22.831Z,14.37
2022-12-08T21:38:35.675Z,14.97
2022-12-08T21:42:47.645Z,14.13
2022-12-08T21:46:59.395Z,15.20
2022-12-08T21:51:11.034Z,14.97
2022-12-08T21:55:23.796Z,15.77
2022-12-08T21:59:35.705Z,18.00
2022-12-08T22:03:47.510Z,26.83
2022-12-08T22:07:59.390Z,32.40
2022-12-08T22:12:12.275Z,19.57
2022-12-08T22:16:24.128Z,22.53
2022-12-08T22:20:40.848Z,19.40
2022-12-08T22:24:55.142Z,18.90
2022-12-08T22:29:06.798Z,16.27
2022-12-08T22:33:18.357Z,17.33
2022-12-08T22:37:29.882Z,16.30
2022-12-08T22:41:41.403Z,17.40
2022-12-08T22:45:52.957Z,17.47
2022-12-08T22:50:05.522Z,18.50
2022-12-08T22:54:17.494Z,19.33
2022-12-08T22:58:29.028Z,18.03
2022-12-08T23:02:40.762Z,17.27
2022-12-08T23:06:52.620Z,17.53
2022-12-08T23:11:04.326Z,23.07
2022-12-08T23:15:16.156Z,17.57
2022-12-08T23:19:27.726Z,16.80
2022-12-08T23:23:40.646Z,18.13
2022-12-08T23:27:52.507Z,25.07
2022-12-08T23:32:04.956Z,21.10
2022-12-08T23:36:18.818Z,19.37
2022-12-08T23:40:30.559Z,18.10
2022-12-08T23:44:42.107Z,20.77
2022-12-08T23:48:53.784Z,17.77
2022-12-08T23:53:05.398Z,19.77
2022-12-08T23:57:17.189Z,21.00
